createdAt,value
2018-11-04T00:02:02.284Z,26.67
2018-11-04T00:04:30.448Z,25.70
2018-11-04T00:06:58.598Z,26.70
2018-11-04T00:09:26.763Z,25.37
2018-11-04T00:11:54.922Z,26.47
2018-11-04T00:14:23.082Z,25.00
2018-11-04T00:16:51.271Z,26.60
2018-11-04T00:19:19.445Z,26.93
2018-11-04T00:21:47.606Z,29.60
2018-11-04T00:24:15.770Z,29.47
2018-11-04T00:26:43.930Z,30.37
2018-11-04T00:29:12.090Z,32.23
2018-11-04T00:31:40.335Z,30.80
2018-11-04T00:34:08.494Z,30.23
2018-11-04T00:36:36.658Z,30.47
2018-11-04T00:39:06.842Z,29.40
2018-11-04T00:41:35.034Z,29.43
2018-11-04T00:44:03.204Z,28.27
2018-11-04T00:46:31.383Z,29.47
2018-11-04T00:48:59.546Z,29.90
2018-11-04T00:51:27.698Z,28.23
2018-11-04T00:53:55.863Z,28.17
2018-11-04T00:56:24.055Z,29.47
2018-11-04T00:58:52.207Z,29.50
2018-11-04T01:01:20.408Z,29.50
2018-11-04T01:03:48.510Z,27.60
2018-11-04T01:06:16.678Z,23.80
2018-11-04T01:08:44.843Z,26.37
2018-11-04T01:11:12.995Z,28.17
2018-11-04T01:13:41.151Z,30.30
2018-11-04T01:16:09.309Z,29.40
2018-11-04T01:18:37.459Z,29.23
2018-11-04T01:21:05.764Z,29.20
2018-11-04T01:23:33.882Z,30.57
2018-11-04T01:26:02.043Z,31.10
2018-11-04T01:28:30.199Z,29.93
2018-11-04T01:30:58.365Z,27.50
2018-11-04T01:33:26.539Z,25.43
2018-11-04T01:35:54.710Z,24.43
2018-11-04T01:38:22.873Z,24.60
2018-11-04T01:40:51.076Z,24.53
2018-11-04T01:43:19.208Z,21.00
2018-11-04T01:45:47.365Z,20.97
2018-11-04T01:48:15.527Z,20.47
2018-11-04T01:50:43.683Z,18.10
2018-11-04T01:53:11.819Z,18.23
2018-11-04T01:55:39.966Z,21.27
2018-11-04T01:58:08.102Z,19.40
2018-11-04T02:00:36.254Z,18.97
2018-11-04T02:03:04.390Z,18.87
2018-11-04T02:05:32.538Z,18.57
2018-11-04T02:08:00.684Z,17.77
2018-11-04T02:10:28.830Z,18.07
2018-11-04T02:12:56.969Z,18.07
2018-11-04T02:15:25.106Z,18.40
2018-11-04T02:17:53.238Z,18.00
2018-11-04T02:20:21.397Z,18.17
2018-11-04T02:22:49.554Z,17.90
2018-11-04T02:25:17.754Z,17.83
2018-11-04T02:27:45.911Z,18.37
2018-11-04T02:30:16.140Z,18.60
2018-11-04T02:32:45.204Z,18.83
2018-11-04T02:35:14.004Z,18.70
2018-11-04T02:37:42.143Z,19.93
2018-11-04T02:40:10.843Z,18.60
2018-11-04T02:42:38.994Z,18.50
2018-11-04T02:45:07.434Z,17.50
2018-11-04T02:47:35.830Z,18.30
2018-11-04T02:50:04.251Z,18.50
2018-11-04T02:52:32.409Z,16.73
2018-11-04T02:55:00.564Z,18.20
2018-11-04T02:57:28.731Z,17.97
2018-11-04T02:59:56.919Z,16.53
2018-11-04T03:02:25.090Z,16.20
2018-11-04T03:04:53.247Z,17.30
2018-11-04T03:07:21.410Z,16.37
2018-11-04T03:09:49.558Z,16.40
2018-11-04T03:12:17.722Z,16.17
2018-11-04T03:14:45.888Z,16.33
2018-11-04T03:17:14.038Z,16.10
2018-11-04T03:19:42.182Z,16.47
2018-11-04T03:22:10.357Z,17.40
2018-11-04T03:24:38.576Z,17.17
2018-11-04T03:27:06.658Z,16.60
2018-11-04T03:29:34.810Z,16.27
2018-11-04T03:32:02.978Z,17.30
2018-11-04T03:34:31.134Z,15.80
2018-11-04T03:36:59.384Z,16.37
2018-11-04T03:39:27.543Z,17.30
2018-11-04T03:41:55.707Z,18.20
2018-11-04T03:44:23.853Z,17.27
2018-11-04T03:46:52.023Z,17.20
2018-11-04T03:49:20.186Z,16.77
2018-11-04T03:51:48.355Z,17.27
2018-11-04T03:54:16.498Z,18.13
2018-11-04T03:56:44.655Z,18.80
2018-11-04T03:59:12.807Z,17.77
2018-11-04T04:01:40.967Z,17.27
2018-11-04T04:04:09.114Z,18.00
2018-11-04T04:06:37.278Z,16.87
2018-11-04T04:09:07.450Z,17.13
2018-11-04T04:11:35.699Z,17.73
2018-11-04T04:14:03.823Z,17.67
2018-11-04T04:16:31.954Z,18.90
2018-11-04T04:19:00.075Z,17.47
2018-11-04T04:21:28.207Z,17.47
2018-11-04T04:23:56.326Z,17.67
2018-11-04T04:26:24.495Z,16.90
2018-11-04T04:28:52.614Z,17.20
2018-11-04T04:31:20.739Z,17.20
2018-11-04T04:33:48.879Z,19.00
2018-11-04T04:36:16.994Z,17.47
2018-11-04T04:38:45.127Z,18.53
2018-11-04T04:41:13.243Z,17.30
2018-11-04T04:43:41.475Z,17.70
2018-11-04T04:46:09.596Z,17.90
2018-11-04T04:48:37.754Z,17.27
2018-11-04T04:51:05.979Z,17.60
2018-11-04T04:53:34.131Z,18.87
2018-11-04T04:56:02.262Z,18.40
2018-11-04T04:58:30.409Z,17.90
2018-11-04T05:00:58.555Z,19.00
2018-11-04T05:03:26.706Z,18.93
2018-11-04T05:05:54.856Z,17.70
2018-11-04T05:08:23.005Z,18.00
2018-11-04T05:10:51.146Z,19.07
2018-11-04T05:13:19.323Z,18.93
2018-11-04T05:15:47.467Z,16.93
2018-11-04T05:18:15.614Z,17.83
2018-11-04T05:20:43.758Z,19.70
2018-11-04T05:23:11.937Z,18.70
2018-11-04T05:25:40.086Z,19.80
2018-11-04T05:28:08.893Z,18.93
2018-11-04T05:30:37.253Z,18.73
2018-11-04T05:33:05.758Z,18.83
2018-11-04T05:35:33.894Z,19.90
2018-11-04T05:38:02.043Z,19.50
2018-11-04T05:40:30.486Z,19.57
2018-11-04T05:42:58.641Z,19.37
2018-11-04T05:45:26.786Z,18.50
2018-11-04T05:47:54.934Z,20.10
2018-11-04T05:50:23.052Z,19.10
2018-11-04T05:52:51.174Z,19.43
2018-11-04T05:55:19.299Z,18.93
2018-11-04T05:57:47.426Z,18.80
2018-11-04T06:00:15.539Z,19.47
2018-11-04T06:02:43.661Z,18.63
2018-11-04T06:05:11.959Z,19.50
2018-11-04T06:07:40.349Z,18.87
2018-11-04T06:10:08.570Z,18.30
2018-11-04T06:12:37.218Z,18.60
2018-11-04T06:15:06.057Z,20.47
2018-11-04T06:17:34.190Z,20.30
2018-11-04T06:20:02.307Z,19.67
2018-11-04T06:22:30.470Z,19.37
2018-11-04T06:24:58.594Z,20.37
2018-11-04T06:27:26.712Z,20.00
2018-11-04T06:29:54.851Z,17.90
2018-11-04T06:32:22.962Z,17.80
2018-11-04T06:34:51.082Z,18.20
2018-11-04T06:37:19.212Z,19.00
2018-11-04T06:39:47.326Z,18.27
2018-11-04T06:42:15.458Z,18.27
2018-11-04T06:44:43.585Z,19.10
2018-11-04T06:47:11.804Z,18.37
2018-11-04T06:49:39.849Z,19.40
2018-11-04T06:52:08.003Z,17.67
2018-11-04T06:54:36.154Z,18.40
2018-11-04T06:57:04.285Z,19.70
2018-11-04T06:59:32.443Z,18.30
2018-11-04T07:02:00.666Z,19.50
2018-11-04T07:04:29.702Z,18.67
2018-11-04T07:06:58.341Z,19.53
2018-11-04T07:09:26.492Z,19.07
2018-11-04T07:11:54.635Z,18.90
2018-11-04T07:14:22.782Z,19.53
2018-11-04T07:16:50.923Z,19.90
2018-11-04T07:19:19.065Z,19.00
2018-11-04T07:21:47.210Z,19.67
2018-11-04T07:24:15.358Z,19.57
2018-11-04T07:26:43.499Z,19.30
2018-11-04T07:29:11.651Z,20.10
2018-11-04T07:31:39.794Z,20.63
2018-11-04T07:34:08.107Z,20.47
2018-11-04T07:36:36.255Z,19.53
2018-11-04T07:39:08.238Z,20.87
2018-11-04T07:41:36.378Z,19.60
2018-11-04T07:44:04.523Z,19.87
2018-11-04T07:46:32.679Z,20.90
2018-11-04T07:49:00.895Z,20.60
2018-11-04T07:51:29.038Z,20.00
2018-11-04T07:53:57.125Z,21.27
2018-11-04T07:56:25.255Z,20.43
2018-11-04T07:58:53.397Z,20.97
2018-11-04T08:01:21.523Z,22.73
2018-11-04T08:03:49.641Z,23.77
2018-11-04T08:06:17.765Z,21.23
2018-11-04T08:08:45.883Z,24.07
2018-11-04T08:11:14.031Z,24.37
2018-11-04T08:13:42.453Z,24.30
2018-11-04T08:16:10.467Z,23.53
2018-11-04T08:18:38.584Z,23.37
2018-11-04T08:21:06.801Z,23.73
2018-11-04T08:23:34.906Z,23.40
2018-11-04T08:26:03.033Z,26.77
2018-11-04T08:28:31.159Z,25.93
2018-11-04T08:30:59.290Z,25.60
2018-11-04T08:33:27.415Z,27.90
2018-11-04T08:35:55.542Z,26.87
2018-11-04T08:38:23.666Z,26.27
2018-11-04T08:40:51.810Z,26.07
2018-11-04T08:43:19.942Z,27.63
2018-11-04T08:45:48.104Z,26.50
2018-11-04T08:48:16.215Z,29.30
2018-11-04T08:50:44.374Z,29.40
2018-11-04T08:53:12.521Z,27.00
2018-11-04T08:55:40.669Z,29.90
2018-11-04T08:58:08.806Z,28.67
2018-11-04T09:00:36.946Z,30.10
2018-11-04T09:03:05.330Z,28.10
2018-11-04T09:05:33.483Z,30.00
2018-11-04T09:08:01.618Z,30.87
2018-11-04T09:10:29.768Z,28.97
2018-11-04T09:12:57.915Z,29.97
2018-11-04T09:15:26.058Z,30.17
2018-11-04T09:17:54.198Z,29.80
2018-11-04T09:20:22.350Z,31.90
2018-11-04T09:22:50.487Z,31.70
2018-11-04T09:25:18.636Z,30.13
2018-11-04T09:27:46.782Z,30.57
2018-11-04T09:30:16.287Z,30.80
2018-11-04T09:32:44.438Z,32.70
2018-11-04T09:35:13.581Z,31.57
2018-11-04T09:37:41.715Z,33.20
2018-11-04T09:40:12.090Z,31.97
2018-11-04T09:42:40.262Z,33.40
2018-11-04T09:45:09.191Z,33.00
2018-11-04T09:47:37.487Z,31.80
2018-11-04T09:50:07.521Z,32.40
2018-11-04T09:52:35.643Z,30.50
2018-11-04T09:55:03.780Z,31.87
2018-11-04T09:57:31.898Z,32.30
2018-11-04T10:00:00.050Z,30.37
2018-11-04T10:02:28.162Z,31.60
2018-11-04T10:04:56.285Z,31.10
2018-11-04T10:07:24.423Z,32.20
2018-11-04T10:09:52.543Z,31.83
2018-11-04T10:12:20.689Z,29.67
2018-11-04T10:14:48.802Z,33.20
2018-11-04T10:17:16.939Z,30.90
2018-11-04T10:19:45.225Z,31.43
2018-11-04T10:22:13.273Z,31.57
2018-11-04T10:24:41.385Z,31.40
2018-11-04T10:27:09.515Z,32.10
2018-11-04T10:29:37.638Z,30.00
2018-11-04T10:32:05.779Z,31.77
2018-11-04T10:34:33.895Z,31.50
2018-11-04T10:37:02.114Z,31.13
2018-11-04T10:39:30.158Z,30.97
2018-11-04T10:41:58.282Z,33.10
2018-11-04T10:44:26.407Z,31.73
2018-11-04T10:46:54.548Z,31.30
2018-11-04T10:49:22.694Z,31.90
2018-11-04T10:51:50.807Z,32.20
2018-11-04T10:54:19.003Z,31.27
2018-11-04T10:56:47.130Z,30.37
2018-11-04T10:59:15.263Z,33.20
2018-11-04T11:01:43.386Z,31.87
2018-11-04T11:04:11.543Z,32.50
2018-11-04T11:06:39.877Z,31.20
2018-11-04T11:09:09.283Z,31.83
2018-11-04T11:11:37.990Z,31.23
2018-11-04T11:14:06.106Z,31.20
2018-11-04T11:16:34.249Z,33.23
2018-11-04T11:19:02.410Z,32.43
2018-11-04T11:21:30.526Z,34.17
2018-11-04T11:23:58.658Z,32.87
2018-11-04T11:26:26.774Z,33.33
2018-11-04T11:28:54.911Z,32.97
2018-11-04T11:31:23.048Z,32.40
2018-11-04T11:33:51.202Z,35.17
2018-11-04T11:36:19.362Z,31.60
2018-11-04T11:38:47.482Z,39.40
2018-11-04T11:41:15.593Z,37.70
2018-11-04T11:43:43.727Z,34.60
2018-11-04T11:46:11.851Z,33.50
2018-11-04T11:51:14.446Z,33.90
2018-11-04T11:53:42.583Z,32.90
2018-11-04T11:56:10.703Z,33.23
2018-11-04T11:58:38.846Z,35.83
2018-11-04T12:01:06.987Z,36.90
2018-11-04T12:03:35.131Z,43.60
2018-11-04T12:06:03.246Z,37.90
2018-11-04T12:08:31.377Z,38.80
2018-11-04T12:10:59.495Z,36.07
2018-11-04T12:13:27.646Z,39.87
2018-11-04T12:15:55.735Z,40.50
2018-11-04T12:18:23.861Z,36.80
2018-11-04T12:20:51.986Z,38.57
2018-11-04T12:23:20.144Z,35.63
2018-11-04T12:25:48.259Z,42.53
2018-11-04T12:28:16.394Z,44.30
2018-11-04T12:30:44.509Z,35.50
2018-11-04T12:33:12.634Z,51.07
2018-11-04T12:35:40.764Z,39.33
2018-11-04T12:38:08.898Z,39.23
2018-11-04T12:40:37.027Z,45.77
2018-11-04T12:43:05.226Z,55.20
2018-11-04T12:45:33.417Z,39.80
2018-11-04T12:48:01.470Z,35.60
2018-11-04T12:50:29.597Z,34.07
2018-11-04T12:52:57.730Z,37.97
2018-11-04T12:55:25.846Z,49.20
2018-11-04T12:57:53.980Z,40.33
2018-11-04T13:00:22.104Z,52.00
2018-11-04T13:02:50.255Z,46.80
2018-11-04T13:05:18.383Z,44.23
2018-11-04T13:07:46.498Z,47.10
2018-11-04T13:10:15.020Z,47.00
2018-11-04T13:12:43.051Z,37.20
2018-11-04T13:15:12.710Z,34.57
2018-11-04T13:17:41.183Z,32.63
2018-11-04T13:20:09.333Z,33.83
2018-11-04T13:22:37.554Z,33.90
2018-11-04T13:25:06.395Z,32.23
2018-11-04T13:27:34.525Z,31.60
2018-11-04T13:30:02.661Z,33.47
2018-11-04T13:32:30.782Z,30.80
2018-11-04T13:34:58.915Z,31.00
2018-11-04T13:37:27.039Z,32.43
2018-11-04T13:39:55.166Z,31.33
2018-11-04T13:42:23.311Z,32.33
2018-11-04T13:44:51.592Z,33.40
2018-11-04T13:47:19.710Z,33.60
2018-11-04T13:49:47.875Z,32.63
2018-11-04T13:52:16.047Z,33.70
2018-11-04T13:54:44.190Z,32.90
2018-11-04T13:57:12.326Z,34.00
2018-11-04T13:59:40.478Z,32.67
2018-11-04T14:02:08.626Z,30.77
2018-11-04T14:04:36.778Z,31.00
2018-11-04T14:07:05.326Z,33.63
2018-11-04T14:09:33.542Z,33.97
2018-11-04T14:12:01.695Z,33.43
2018-11-04T14:14:29.930Z,31.50
2018-11-04T14:16:58.074Z,33.50
2018-11-04T14:19:26.236Z,33.17
2018-11-04T14:21:54.382Z,33.37
2018-11-04T14:24:22.617Z,31.10
2018-11-04T14:26:50.759Z,34.77
2018-11-04T14:29:18.906Z,32.83
2018-11-04T14:31:47.115Z,32.67
2018-11-04T14:34:15.258Z,33.00
2018-11-04T14:36:43.407Z,31.90
2018-11-04T14:39:11.867Z,30.47
2018-11-04T14:41:40.032Z,34.60
2018-11-04T14:44:08.171Z,33.13
2018-11-04T14:46:36.343Z,33.07
2018-11-04T14:49:04.877Z,32.50
2018-11-04T14:51:33.095Z,31.87
2018-11-04T14:54:01.235Z,31.77
2018-11-04T14:56:30.151Z,30.93
2018-11-04T14:58:58.656Z,31.20
2018-11-04T15:01:27.397Z,30.57
2018-11-04T15:03:55.433Z,30.90
2018-11-04T15:06:24.390Z,31.30
2018-11-04T15:08:52.566Z,30.07
2018-11-04T15:11:20.702Z,30.07
2018-11-04T15:13:48.821Z,31.60
2018-11-04T15:16:17.038Z,30.67
2018-11-04T15:18:45.337Z,27.00
2018-11-04T15:21:13.363Z,31.13
2018-11-04T15:23:41.504Z,29.93
2018-11-04T15:26:09.632Z,32.00
2018-11-04T15:28:38.506Z,33.40
2018-11-04T15:31:06.687Z,34.80
2018-11-04T15:33:34.818Z,33.27
2018-11-04T15:36:02.946Z,33.83
2018-11-04T15:38:31.129Z,30.60
2018-11-04T15:40:59.298Z,28.57
2018-11-04T15:43:27.431Z,30.60
2018-11-04T15:45:55.560Z,28.00
2018-11-04T15:48:23.702Z,27.80
2018-11-04T15:50:51.844Z,30.13
2018-11-04T15:53:20.391Z,27.50
2018-11-04T15:55:48.531Z,30.93
2018-11-04T15:58:16.676Z,28.93
2018-11-04T16:00:44.911Z,30.03
2018-11-04T16:03:13.063Z,30.10
2018-11-04T16:05:41.196Z,29.73
2018-11-04T16:08:09.326Z,30.47
2018-11-04T16:10:37.486Z,30.93
2018-11-04T16:13:05.635Z,29.87
2018-11-04T16:15:33.775Z,28.93
2018-11-04T16:18:01.912Z,30.00
2018-11-04T16:20:30.051Z,30.33
2018-11-04T16:22:58.175Z,31.00
2018-11-04T16:25:26.352Z,29.60
2018-11-04T16:27:54.433Z,30.13
2018-11-04T16:30:22.574Z,30.77
2018-11-04T16:32:50.707Z,29.60
2018-11-04T16:35:18.930Z,32.80
2018-11-04T16:37:47.072Z,29.47
2018-11-04T16:40:15.191Z,32.60
2018-11-04T16:42:43.330Z,33.30
2018-11-04T16:45:13.954Z,30.80
2018-11-04T16:47:42.088Z,33.70
2018-11-04T16:50:11.189Z,33.47
2018-11-04T16:52:39.306Z,31.73
2018-11-04T16:55:07.935Z,31.80
2018-11-04T16:57:36.061Z,32.60
2018-11-04T17:00:04.526Z,32.80
2018-11-04T17:02:32.687Z,34.27
2018-11-04T17:05:00.849Z,37.80
2018-11-04T17:07:29.128Z,33.50
2018-11-04T17:09:57.270Z,36.17
2018-11-04T17:12:25.433Z,36.47
2018-11-04T17:14:53.583Z,36.20
2018-11-04T17:17:21.774Z,35.87
2018-11-04T17:19:50.099Z,33.50
2018-11-04T17:22:18.250Z,33.47
2018-11-04T17:24:46.387Z,35.13
2018-11-04T17:27:14.538Z,33.80
2018-11-04T17:29:42.991Z,36.13
2018-11-04T17:32:11.170Z,37.73
2018-11-04T17:34:39.301Z,35.47
2018-11-04T17:37:08.046Z,34.20
2018-11-04T17:39:36.275Z,34.70
2018-11-04T17:42:04.746Z,32.70
2018-11-04T17:44:32.936Z,31.70
2018-11-04T17:47:01.027Z,29.77
2018-11-04T17:49:29.154Z,32.40
2018-11-04T17:51:57.298Z,31.60
2018-11-04T17:54:25.439Z,34.17
2018-11-04T17:56:53.858Z,33.77
2018-11-04T17:59:21.991Z,35.87
2018-11-04T18:01:50.112Z,34.33
2018-11-04T18:04:18.243Z,33.00
2018-11-04T18:06:46.375Z,35.13
2018-11-04T18:09:14.531Z,36.30
2018-11-04T18:11:42.647Z,37.37
2018-11-04T18:14:10.902Z,39.43
2018-11-04T18:16:39.130Z,39.47
2018-11-04T18:19:07.280Z,38.93
2018-11-04T18:21:35.943Z,37.97
2018-11-04T18:24:04.094Z,36.67
2018-11-04T18:26:32.309Z,32.30
2018-11-04T18:29:00.393Z,34.70
2018-11-04T18:31:28.532Z,31.70
2018-11-04T18:33:56.842Z,31.87
2018-11-04T18:36:24.990Z,30.80
2018-11-04T18:38:53.122Z,31.70
2018-11-04T18:41:21.243Z,34.07
2018-11-04T18:43:49.602Z,30.00
2018-11-04T18:46:17.478Z,30.57
2018-11-04T18:48:45.633Z,31.93
2018-11-04T18:51:13.842Z,31.83
2018-11-04T18:53:42.019Z,35.20
2018-11-04T18:56:10.183Z,34.87
2018-11-04T18:58:38.333Z,33.07
2018-11-04T19:01:06.458Z,32.90
2018-11-04T19:03:34.713Z,32.43
2018-11-04T19:06:02.897Z,32.30
2018-11-04T19:08:31.069Z,34.70
2018-11-04T19:10:59.218Z,31.07
2018-11-04T19:13:27.383Z,28.90
2018-11-04T19:15:55.554Z,28.60
2018-11-04T19:18:23.713Z,28.90
2018-11-04T19:20:51.866Z,29.73
2018-11-04T19:23:20.003Z,29.70
2018-11-04T19:25:48.171Z,27.40
2018-11-04T19:28:16.354Z,33.50
2018-11-04T19:30:44.535Z,31.80
2018-11-04T19:33:12.674Z,29.30
2018-11-04T19:35:40.834Z,29.00
2018-11-04T19:38:09.007Z,28.37
2018-11-04T19:40:37.179Z,26.73
2018-11-04T19:43:05.400Z,27.00
2018-11-04T19:45:33.550Z,26.13
2018-11-04T19:48:01.738Z,27.43
2018-11-04T19:50:29.896Z,29.00
2018-11-04T19:52:58.173Z,26.23
2018-11-04T19:55:26.331Z,25.77
2018-11-04T19:57:54.475Z,25.10
2018-11-04T20:00:22.642Z,25.07
2018-11-04T20:02:50.802Z,24.60
2018-11-04T20:05:19.025Z,25.03
2018-11-04T20:07:47.135Z,29.50
2018-11-04T20:10:16.614Z,31.00
2018-11-04T20:12:50.342Z,28.40
2018-11-04T20:15:18.519Z,29.80
2018-11-04T20:17:47.583Z,30.37
2018-11-04T20:20:20.785Z,27.70
2018-11-04T20:22:48.843Z,29.90
2018-11-04T20:25:22.411Z,29.77
2018-11-04T20:27:50.546Z,29.40
2018-11-04T20:30:18.795Z,30.10
2018-11-04T20:32:52.345Z,29.40
2018-11-04T20:35:20.516Z,26.90
2018-11-04T20:37:48.799Z,27.13
2018-11-04T20:40:22.425Z,28.37
2018-11-04T20:42:50.587Z,27.40
2018-11-04T20:45:18.802Z,28.50
2018-11-04T20:47:52.362Z,27.30
2018-11-04T20:50:26.063Z,26.23
2018-11-04T20:52:54.240Z,24.07
2018-11-04T20:55:22.419Z,26.63
2018-11-04T20:57:57.992Z,25.70
2018-11-04T21:00:26.346Z,24.00
2018-11-04T21:02:54.549Z,24.63
2018-11-04T21:05:22.710Z,23.03
2018-11-04T21:07:51.010Z,23.53
2018-11-04T21:10:19.183Z,22.53
2018-11-04T21:12:47.355Z,23.10
2018-11-04T21:15:15.506Z,22.70
2018-11-04T21:17:43.679Z,21.20
2018-11-04T21:20:11.905Z,23.33
2018-11-04T21:22:40.047Z,21.40
2018-11-04T21:25:08.305Z,19.20
2018-11-04T21:27:36.455Z,21.80
2018-11-04T21:30:07.063Z,24.10
2018-11-04T21:32:35.342Z,30.23
2018-11-04T21:35:03.615Z,32.57
2018-11-04T21:37:31.807Z,32.37
2018-11-04T21:39:59.947Z,34.50
2018-11-04T21:42:28.316Z,36.20
2018-11-04T21:44:56.310Z,33.70
2018-11-04T21:47:24.487Z,31.13
2018-11-04T21:49:52.691Z,29.50
2018-11-04T21:52:20.821Z,38.80
2018-11-04T21:54:48.970Z,37.70
2018-11-04T21:57:17.114Z,41.97
2018-11-04T21:59:45.295Z,36.77
2018-11-04T22:02:13.519Z,32.30
2018-11-04T22:04:41.809Z,31.43
2018-11-04T22:07:09.887Z,30.10
2018-11-04T22:09:38.038Z,25.07
2018-11-04T22:12:06.179Z,27.33
2018-11-04T22:14:34.341Z,24.93
2018-11-04T22:17:02.466Z,25.60
2018-11-04T22:19:30.622Z,24.73
2018-11-04T22:21:58.771Z,22.80
2018-11-04T22:24:26.947Z,21.30
2018-11-04T22:26:55.103Z,21.70
2018-11-04T22:29:23.245Z,22.63
2018-11-04T22:31:51.390Z,19.43
2018-11-04T22:34:19.531Z,20.10
2018-11-04T22:36:47.678Z,19.47
2018-11-04T22:39:15.820Z,18.23
2018-11-04T22:41:43.984Z,19.17
2018-11-04T22:44:12.126Z,18.37
2018-11-04T22:46:40.642Z,16.90
2018-11-04T22:49:08.763Z,17.30
2018-11-04T22:51:36.903Z,17.23
2018-11-04T22:54:05.346Z,16.50
2018-11-04T22:56:33.570Z,16.30
2018-11-04T22:59:01.595Z,15.33
2018-11-04T23:01:29.799Z,16.27
2018-11-04T23:03:57.849Z,16.00
2018-11-04T23:06:26.791Z,17.20
2018-11-04T23:08:54.935Z,18.30
2018-11-04T23:11:23.098Z,16.57
2018-11-04T23:13:51.220Z,18.37
2018-11-04T23:16:19.367Z,20.47
2018-11-04T23:18:47.545Z,22.13
2018-11-04T23:21:15.606Z,22.30
2018-11-04T23:23:43.764Z,19.40
2018-11-04T23:26:11.887Z,19.63
2018-11-04T23:28:40.250Z,18.90
2018-11-04T23:31:08.402Z,19.17
2018-11-04T23:33:36.534Z,19.87
2018-11-04T23:36:04.741Z,17.70
2018-11-04T23:38:32.879Z,19.03
2018-11-04T23:41:00.990Z,18.93
2018-11-04T23:43:29.123Z,19.10
2018-11-04T23:45:57.246Z,19.60
2018-11-04T23:48:25.369Z,18.50
2018-11-04T23:50:53.507Z,19.00
2018-11-04T23:53:21.626Z,17.80
2018-11-04T23:55:49.742Z,19.00
2018-11-04T23:58:17.886Z,20.00
